Time;durP1;ratioP1;P1;durP2;ratioP2;P2;SDS_P1;SDS_P2;PMS_P1;PMS_P2;Temp;Humidity;BMP_temperature;BMP_pressure;BME280_temperature;BME280_humidity;BME280_pressure;Samples;Min_cycle;Max_cycle;Signal;HPM_P1;HPM_P2
2022/02/20 00:01:10;;;;;;;4.53;1.53;;;7.50;70.70;;;;;;5008717;28;21186;-47
2022/02/20 00:03:37;;;;;;;3.37;1.23;;;7.60;70.60;;;;;;5026454;28;20821;-47
2022/02/20 00:06:04;;;;;;;5.43;1.53;;;7.50;70.60;;;;;;5026321;28;20481;-48
2022/02/20 00:08:31;;;;;;;4.00;1.57;;;7.60;70.40;;;;;;5011660;28;20487;-46
2022/02/20 00:10:57;;;;;;;3.03;1.40;;;7.60;70.50;;;;;;5024392;28;20461;-48
2022/02/20 00:13:24;;;;;;;3.70;1.57;;;7.60;70.50;;;;;;5008145;28;20463;-48
2022/02/20 00:15:51;;;;;;;7.87;2.43;;;7.60;70.60;;;;;;5011886;28;20467;-48
2022/02/20 00:18:18;;;;;;;1.97;1.47;;;7.60;70.40;;;;;;5029043;28;20459;-47
2022/02/20 00:20:46;;;;;;;4.67;1.63;;;7.70;70.20;;;;;;5027638;28;20463;-46
2022/02/20 00:23:15;;;;;;;2.43;1.73;;;7.70;70.10;;;;;;5025721;28;20481;-47
2022/02/20 00:25:44;;;;;;;2.77;1.50;;;7.70;70.00;;;;;;5029921;28;20520;-47
2022/02/20 00:28:11;;;;;;;3.90;1.50;;;7.80;69.80;;;;;;5026901;28;20491;-46
2022/02/20 00:30:38;;;;;;;3.10;1.80;;;7.80;69.90;;;;;;5013060;28;20988;-45
2022/02/20 00:33:08;;;;;;;3.60;1.77;;;7.80;70.10;;;;;;5028706;28;20459;-46
2022/02/20 00:35:35;;;;;;;3.50;1.30;;;7.80;70.00;;;;;;5027131;28;20558;-46
2022/02/20 00:38:07;;;;;;;3.10;1.63;;;7.80;69.90;;;;;;5027429;28;20538;-46
2022/02/20 00:40:34;;;;;;;3.47;1.50;;;7.80;70.10;;;;;;5025619;28;20495;-47
2022/02/20 00:43:01;;;;;;;4.10;1.53;;;7.80;70.20;;;;;;5024890;28;20820;-47
2022/02/20 00:45:28;;;;;;;5.57;1.30;;;7.80;70.40;;;;;;5022658;28;20559;-46
2022/02/20 00:47:56;;;;;;;3.00;1.30;;;7.80;70.40;;;;;;5029550;28;20486;-46
2022/02/20 00:50:24;;;;;;;3.90;1.27;;;7.80;70.50;;;;;;5013260;28;20489;-46
2022/02/20 00:52:51;;;;;;;3.60;1.03;;;7.80;70.40;;;;;;5017336;28;20523;-47
2022/02/20 00:55:17;;;;;;;2.90;1.30;;;7.90;70.50;;;;;;5017278;28;21047;-46
2022/02/20 00:57:44;;;;;;;1.33;1.20;;;7.80;70.80;;;;;;5015614;28;20808;-46
2022/02/20 01:00:13;;;;;;;3.80;1.00;;;7.80;71.10;;;;;;5027779;28;20478;-46
2022/02/20 01:02:40;;;;;;;4.57;1.20;;;7.90;71.40;;;;;;5028267;28;20455;-46
2022/02/20 01:05:09;;;;;;;4.80;1.77;;;7.80;71.70;;;;;;5027079;28;20565;-47
2022/02/20 01:07:36;;;;;;;2.93;1.43;;;7.80;71.90;;;;;;5009544;28;20546;-47
2022/02/20 01:10:06;;;;;;;1.93;1.00;;;7.80;72.40;;;;;;5013468;28;20487;-47
2022/02/20 01:12:32;;;;;;;1.70;1.00;;;7.80;72.90;;;;;;5026055;28;20448;-48
2022/02/20 01:14:59;;;;;;;1.10;1.00;;;7.80;73.30;;;;;;5012825;28;20582;-47
2022/02/20 01:17:27;;;;;;;1.30;1.07;;;7.80;73.50;;;;;;5028525;28;21054;-47
2022/02/20 01:19:54;;;;;;;2.03;1.03;;;7.80;73.60;;;;;;5025691;28;20459;-47
2022/02/20 01:22:21;;;;;;;5.53;0.97;;;7.80;73.60;;;;;;5027758;28;20968;-47
2022/02/20 01:24:48;;;;;;;2.10;1.40;;;7.80;73.50;;;;;;5028724;28;20451;-46
2022/02/20 01:27:15;;;;;;;6.87;1.80;;;7.80;73.60;;;;;;5026182;28;21110;-48
2022/02/20 01:29:42;;;;;;;2.40;1.67;;;7.80;73.50;;;;;;5025565;28;20489;-47
2022/02/20 01:32:09;;;;;;;4.80;1.53;;;7.80;73.50;;;;;;5012418;28;20448;-47
2022/02/20 01:34:35;;;;;;;3.70;1.20;;;7.80;73.50;;;;;;5028086;28;20960;-46
2022/02/20 01:37:03;;;;;;;3.30;1.20;;;7.80;73.40;;;;;;5027426;28;20460;-47
2022/02/20 01:39:29;;;;;;;2.60;1.50;;;7.90;73.30;;;;;;5011727;28;20524;-47
2022/02/20 01:41:56;;;;;;;6.27;1.10;;;7.90;73.40;;;;;;5002349;28;20551;-46
2022/02/20 01:44:23;;;;;;;2.00;0.80;;;7.90;73.50;;;;;;5011621;28;20467;-47
2022/02/20 01:46:51;;;;;;;0.83;0.70;;;7.90;73.80;;;;;;5025502;28;20489;-47
2022/02/20 01:49:19;;;;;;;1.93;1.10;;;7.90;74.00;;;;;;5029356;28;21027;-46
2022/02/20 01:51:46;;;;;;;1.40;1.30;;;7.90;74.40;;;;;;5022769;28;20548;-46
2022/02/20 01:54:13;;;;;;;5.33;1.47;;;7.90;74.60;;;;;;5022136;28;20463;-46
2022/02/20 01:56:40;;;;;;;2.70;2.50;;;7.90;74.80;;;;;;5021316;28;20466;-47
2022/02/20 01:59:07;;;;;;;3.53;1.10;;;7.80;75.10;;;;;;5008985;28;20538;-46
2022/02/20 02:01:34;;;;;;;3.20;1.60;;;7.90;75.20;;;;;;5011471;28;20455;-47
2022/02/20 02:04:01;;;;;;;5.07;1.53;;;7.90;75.40;;;;;;5027127;28;20551;-46
2022/02/20 02:06:29;;;;;;;2.87;1.20;;;7.80;75.70;;;;;;5026589;28;20455;-46
2022/02/20 02:08:56;;;;;;;5.87;1.30;;;7.80;75.90;;;;;;5025931;28;20488;-46
2022/02/20 02:11:23;;;;;;;2.60;1.67;;;7.80;76.40;;;;;;5026234;28;20462;-46
2022/02/20 02:13:50;;;;;;;7.27;1.07;;;7.70;76.70;;;;;;5028266;28;20447;-46
2022/02/20 02:16:21;;;;;;;3.90;1.57;;;7.70;77.10;;;;;;5003132;28;20551;-46
2022/02/20 02:18:48;;;;;;;2.57;1.33;;;7.70;77.30;;;;;;5024305;28;20471;-47
2022/02/20 02:21:15;;;;;;;3.37;1.40;;;7.70;77.50;;;;;;5008080;28;21008;-47
2022/02/20 02:23:41;;;;;;;6.00;1.40;;;7.60;77.60;;;;;;5026422;28;20769;-47
2022/02/20 02:26:09;;;;;;;8.20;3.27;;;7.60;77.80;;;;;;5024665;28;20460;-46
2022/02/20 02:28:36;;;;;;;7.97;1.60;;;7.60;77.70;;;;;;5024074;28;21025;-46
2022/02/20 02:31:04;;;;;;;2.83;1.03;;;7.60;77.70;;;;;;5023408;28;21369;-46
2022/02/20 02:33:33;;;;;;;1.47;1.10;;;7.60;77.70;;;;;;5021405;28;20456;-47
2022/02/20 02:36:03;;;;;;;3.17;1.10;;;7.60;77.60;;;;;;5018336;28;20467;-47
2022/02/20 02:38:30;;;;;;;6.33;1.70;;;7.60;77.60;;;;;;5026042;28;20455;-47
2022/02/20 02:41:06;;;;;;;2.43;1.20;;;7.60;77.60;;;;;;5026542;28;20826;-48
2022/02/20 02:43:34;;;;;;;10.40;1.93;;;7.60;77.50;;;;;;5026017;28;21027;-47
2022/02/20 02:46:02;;;;;;;3.00;1.37;;;7.70;77.30;;;;;;5023156;28;20510;-47
2022/02/20 02:48:29;;;;;;;2.23;1.20;;;7.70;77.10;;;;;;5007228;28;20489;-47
2022/02/20 02:50:56;;;;;;;9.20;1.50;;;7.80;76.90;;;;;;5024629;28;20495;-47
2022/02/20 02:53:23;;;;;;;6.13;1.47;;;7.80;76.90;;;;;;5008046;28;20462;-47
2022/02/20 02:55:51;;;;;;;2.40;1.30;;;7.80;76.90;;;;;;5006895;28;20455;-45
2022/02/20 02:58:24;;;;;;;2.30;1.10;;;7.80;76.80;;;;;;5024257;28;20457;-46
2022/02/20 03:00:52;;;;;;;3.13;1.00;;;7.90;76.80;;;;;;5025690;28;20463;-47
2022/02/20 03:03:20;;;;;;;1.90;1.13;;;7.90;76.70;;;;;;5024337;28;20575;-46
2022/02/20 03:05:47;;;;;;;1.03;0.93;;;7.90;76.70;;;;;;5026549;28;20470;-46
2022/02/20 03:08:14;;;;;;;4.07;1.40;;;8.00;76.50;;;;;;5020614;28;21057;-47
2022/02/20 03:10:40;;;;;;;2.80;0.80;;;8.00;76.30;;;;;;5025275;28;20502;-46
2022/02/20 03:13:07;;;;;;;3.23;1.33;;;8.00;76.10;;;;;;5024880;28;20490;-50
2022/02/20 03:15:34;;;;;;;3.80;1.23;;;8.10;76.00;;;;;;5009843;28;20535;-51
2022/02/20 03:18:01;;;;;;;2.90;1.23;;;8.10;75.80;;;;;;5021794;28;20471;-51
2022/02/20 03:20:27;;;;;;;3.17;2.00;;;8.10;75.70;;;;;;5021929;28;20827;-51
2022/02/20 03:22:54;;;;;;;2.50;1.00;;;8.20;75.60;;;;;;5009904;28;20493;-51
2022/02/20 03:25:21;;;;;;;2.30;1.17;;;8.20;75.50;;;;;;5020149;28;20550;-51
2022/02/20 03:27:48;;;;;;;3.13;1.17;;;8.20;75.30;;;;;;5023320;28;21075;-51
2022/02/20 03:30:15;;;;;;;3.23;1.13;;;8.20;75.20;;;;;;5022653;28;20590;-51
2022/02/20 03:32:42;;;;;;;1.43;1.00;;;8.20;75.10;;;;;;5023666;28;20455;-51
2022/02/20 03:35:09;;;;;;;3.00;0.97;;;8.20;75.00;;;;;;5024938;28;20465;-51
2022/02/20 03:37:36;;;;;;;2.07;1.07;;;8.20;75.10;;;;;;5026927;28;21136;-46
2022/02/20 03:40:03;;;;;;;1.53;1.20;;;8.30;74.90;;;;;;5025036;28;20474;-46
2022/02/20 03:42:30;;;;;;;3.60;1.33;;;8.30;74.80;;;;;;5024676;28;20471;-47
2022/02/20 03:44:57;;;;;;;1.70;0.97;;;8.30;74.70;;;;;;5010732;28;20467;-45
2022/02/20 03:47:24;;;;;;;4.73;1.40;;;8.30;74.80;;;;;;5007895;28;20503;-46
2022/02/20 03:49:51;;;;;;;1.27;0.90;;;8.30;74.60;;;;;;5006097;28;20646;-48
2022/02/20 03:52:18;;;;;;;1.20;0.97;;;8.30;74.70;;;;;;5024862;28;20460;-46
2022/02/20 03:54:45;;;;;;;3.10;1.00;;;8.30;74.80;;;;;;5009325;28;20495;-46
2022/02/20 03:57:12;;;;;;;8.30;1.00;;;8.30;74.90;;;;;;5024610;28;20482;-47
2022/02/20 03:59:39;;;;;;;1.90;1.23;;;8.30;74.80;;;;;;5022956;28;20467;-46
2022/02/20 04:02:06;;;;;;;0.90;0.80;;;8.30;74.90;;;;;;5025032;28;20459;-46
2022/02/20 04:04:33;;;;;;;3.60;0.93;;;8.30;75.00;;;;;;5025266;28;21000;-46
2022/02/20 04:07:00;;;;;;;2.47;1.03;;;8.30;75.20;;;;;;5008069;28;20461;-46
2022/02/20 04:09:26;;;;;;;0.70;0.67;;;8.30;75.30;;;;;;5023552;28;20494;-47
2022/02/20 04:11:53;;;;;;;3.00;0.80;;;8.30;75.30;;;;;;5023427;28;20550;-46
2022/02/20 04:14:20;;;;;;;1.60;0.57;;;8.30;75.30;;;;;;5023954;28;20462;-45
2022/02/20 04:16:47;;;;;;;1.63;0.80;;;8.20;75.40;;;;;;5024046;28;20465;-46
2022/02/20 04:19:14;;;;;;;3.67;1.13;;;8.20;75.60;;;;;;5023299;28;20463;-46
2022/02/20 04:21:40;;;;;;;1.07;0.77;;;8.20;75.70;;;;;;5020860;28;20452;-47
2022/02/20 04:24:07;;;;;;;0.83;0.80;;;8.30;75.70;;;;;;5026206;28;20546;-47
2022/02/20 04:26:34;;;;;;;2.10;1.23;;;8.30;75.70;;;;;;5006126;28;21796;-47
2022/02/20 04:29:01;;;;;;;2.00;1.13;;;8.30;75.70;;;;;;5022560;28;20465;-47
2022/02/20 04:31:28;;;;;;;1.20;0.90;;;8.20;75.80;;;;;;5024738;28;20829;-47
2022/02/20 04:33:57;;;;;;;1.37;0.90;;;8.20;75.80;;;;;;5024479;28;20542;-46
2022/02/20 04:36:24;;;;;;;6.03;2.67;;;8.20;75.70;;;;;;5008620;28;20516;-46
2022/02/20 04:38:50;;;;;;;2.50;1.03;;;8.30;75.50;;;;;;5021438;28;20910;-46
2022/02/20 04:41:17;;;;;;;1.80;1.10;;;8.20;75.50;;;;;;5019035;28;20460;-47
2022/02/20 04:43:44;;;;;;;4.10;1.10;;;8.20;75.50;;;;;;5026083;28;20463;-46
2022/02/20 04:46:11;;;;;;;1.60;1.20;;;8.20;75.50;;;;;;5024354;28;20497;-46
2022/02/20 04:48:37;;;;;;;2.43;1.30;;;8.20;75.40;;;;;;5025622;28;20570;-46
2022/02/20 04:51:04;;;;;;;1.87;0.80;;;8.10;75.40;;;;;;5023566;28;20881;-46
2022/02/20 04:53:31;;;;;;;3.20;1.30;;;8.10;75.50;;;;;;5006705;28;20459;-47
2022/02/20 04:55:59;;;;;;;3.73;1.13;;;8.10;75.50;;;;;;5026194;28;20494;-46
2022/02/20 04:58:25;;;;;;;5.30;1.33;;;8.00;75.60;;;;;;5028827;28;20477;-48
2022/02/20 05:00:52;;;;;;;2.43;1.10;;;8.00;75.60;;;;;;5026651;28;20575;-47
2022/02/20 05:03:19;;;;;;;5.80;1.60;;;8.00;75.60;;;;;;5012771;28;20878;-47
2022/02/20 05:05:46;;;;;;;2.00;0.90;;;8.00;75.70;;;;;;5011014;28;20505;-47
2022/02/20 05:08:12;;;;;;;4.10;1.07;;;7.90;75.80;;;;;;5010794;28;20462;-47
2022/02/20 05:10:39;;;;;;;0.93;0.80;;;7.90;76.00;;;;;;5027481;28;20498;-47
2022/02/20 05:13:06;;;;;;;2.93;0.90;;;7.90;76.10;;;;;;5011541;28;20457;-47
2022/02/20 05:15:33;;;;;;;2.40;1.03;;;7.90;76.20;;;;;;5026710;28;20462;-47
2022/02/20 05:18:00;;;;;;;2.70;0.90;;;7.90;76.30;;;;;;5025850;28;20459;-47
2022/02/20 05:20:27;;;;;;;2.20;1.00;;;7.90;76.50;;;;;;5026389;28;20461;-47
2022/02/20 05:22:53;;;;;;;4.30;1.10;;;7.80;76.50;;;;;;5012313;28;20466;-47
2022/02/20 05:25:20;;;;;;;1.23;0.83;;;7.80;76.60;;;;;;5026788;28;20474;-47
2022/02/20 05:27:47;;;;;;;2.10;0.80;;;7.80;76.70;;;;;;5027398;28;20459;-47
2022/02/20 05:30:16;;;;;;;2.10;1.17;;;7.80;76.80;;;;;;5008379;28;20848;-46
2022/02/20 05:32:43;;;;;;;1.30;1.00;;;7.80;77.00;;;;;;5027292;28;20460;-46
2022/02/20 05:35:10;;;;;;;4.50;1.30;;;7.70;77.30;;;;;;5027188;28;20447;-46
2022/02/20 05:37:41;;;;;;;1.40;1.10;;;7.70;77.70;;;;;;5027302;28;20986;-47
2022/02/20 05:40:10;;;;;;;2.00;1.20;;;7.60;77.80;;;;;;5027259;28;20987;-46
2022/02/20 05:42:37;;;;;;;2.10;1.43;;;7.60;78.20;;;;;;5028137;28;20464;-46
2022/02/20 05:45:04;;;;;;;4.10;1.30;;;7.60;78.40;;;;;;5024374;28;20880;-46
2022/02/20 05:47:31;;;;;;;1.30;1.00;;;7.60;78.80;;;;;;5024349;28;20487;-46
2022/02/20 05:49:58;;;;;;;2.30;1.10;;;7.60;79.40;;;;;;5026362;28;20515;-46
2022/02/20 05:52:25;;;;;;;3.73;1.20;;;7.50;79.70;;;;;;5026244;28;20466;-47
2022/02/20 05:54:52;;;;;;;1.63;1.20;;;7.50;80.10;;;;;;5025205;28;20766;-46
2022/02/20 05:57:19;;;;;;;6.53;1.40;;;7.50;80.60;;;;;;5008587;28;20949;-46
2022/02/20 05:59:46;;;;;;;2.63;1.30;;;7.50;80.70;;;;;;5025887;28;20463;-45
2022/02/20 06:02:13;;;;;;;5.40;1.53;;;7.60;81.40;;;;;;5008800;28;20486;-47
2022/02/20 06:04:39;;;;;;;4.77;1.23;;;7.60;81.60;;;;;;5023682;28;21770;-46
2022/02/20 06:07:06;;;;;;;3.83;1.20;;;7.60;82.40;;;;;;5006274;28;20546;-46
2022/02/20 06:09:33;;;;;;;4.33;1.40;;;7.60;82.40;;;;;;5026410;28;20816;-45
2022/02/20 06:12:00;;;;;;;4.70;1.90;;;7.60;82.80;;;;;;5024281;28;20945;-47
2022/02/20 06:14:27;;;;;;;5.93;1.93;;;7.70;82.90;;;;;;5028318;28;20455;-46
2022/02/20 06:16:54;;;;;;;2.43;1.27;;;7.70;82.90;;;;;;5005115;28;20467;-46
2022/02/20 06:19:20;;;;;;;5.67;2.30;;;7.70;82.80;;;;;;5025647;28;20460;-46
2022/02/20 06:21:47;;;;;;;4.13;1.73;;;7.70;82.90;;;;;;5023438;28;20467;-46
2022/02/20 06:24:14;;;;;;;2.20;1.60;;;7.70;83.00;;;;;;5027116;28;20574;-46
2022/02/20 06:26:41;;;;;;;3.93;2.00;;;7.80;82.90;;;;;;5024248;28;21027;-47
2022/02/20 06:29:08;;;;;;;4.30;2.50;;;7.80;82.90;;;;;;5025496;28;21645;-46
2022/02/20 06:31:34;;;;;;;6.90;2.30;;;7.80;82.80;;;;;;5025507;28;20493;-46
2022/02/20 06:34:02;;;;;;;5.07;3.03;;;7.80;82.70;;;;;;5009681;28;20497;-46
2022/02/20 06:36:29;;;;;;;2.20;1.87;;;7.80;82.60;;;;;;5024228;28;20462;-46
2022/02/20 06:38:55;;;;;;;3.80;2.40;;;7.80;82.40;;;;;;5024520;28;20468;-46
2022/02/20 06:41:27;;;;;;;5.43;2.13;;;7.80;82.30;;;;;;5024259;28;20466;-47
2022/02/20 06:43:54;;;;;;;4.50;2.87;;;7.80;82.20;;;;;;5010899;28;20474;-46
2022/02/20 06:46:20;;;;;;;4.63;2.80;;;7.90;82.00;;;;;;5025752;28;21015;-46
2022/02/20 06:48:47;;;;;;;6.63;3.07;;;7.90;81.80;;;;;;5024724;28;20479;-46
2022/02/20 06:51:14;;;;;;;4.00;2.20;;;8.00;81.80;;;;;;5023482;28;20491;-46
2022/02/20 06:53:41;;;;;;;2.30;2.10;;;8.00;81.70;;;;;;5021266;28;20473;-46
2022/02/20 06:56:08;;;;;;;9.33;3.03;;;8.00;81.80;;;;;;5023690;28;21161;-46
2022/02/20 06:58:34;;;;;;;5.33;2.73;;;8.00;81.90;;;;;;5023616;28;20939;-46
2022/02/20 07:01:01;;;;;;;4.63;2.97;;;8.00;81.90;;;;;;5025908;28;20456;-46
2022/02/20 07:03:28;;;;;;;5.10;2.43;;;8.10;81.90;;;;;;5026162;28;20926;-46
2022/02/20 07:05:55;;;;;;;2.67;2.47;;;8.10;82.00;;;;;;5020319;28;21030;-46
2022/02/20 07:08:22;;;;;;;4.27;2.90;;;8.10;82.00;;;;;;5023556;28;20455;-46
2022/02/20 07:10:49;;;;;;;4.13;2.43;;;8.10;82.10;;;;;;5010770;28;20574;-46
2022/02/20 07:13:20;;;;;;;3.20;2.60;;;8.10;82.40;;;;;;5027798;28;20444;-49
2022/02/20 07:15:51;;;;;;;5.00;2.90;;;8.20;82.60;;;;;;5028122;28;20463;-48
2022/02/20 07:18:18;;;;;;;5.53;2.93;;;8.20;83.00;;;;;;5002962;28;20463;-47
2022/02/20 07:20:48;;;;;;;3.40;2.43;;;8.20;83.50;;;;;;5025635;28;20462;-47
2022/02/20 07:23:15;;;;;;;3.13;2.80;;;8.20;83.80;;;;;;5008240;28;20460;-46
2022/02/20 07:25:42;;;;;;;4.80;3.00;;;8.20;84.20;;;;;;5022558;28;20463;-48
2022/02/20 07:28:10;;;;;;;4.77;3.40;;;8.20;84.20;;;;;;5025386;28;20541;-47
2022/02/20 07:30:37;;;;;;;5.93;3.50;;;8.20;84.60;;;;;;5013139;28;20479;-47
2022/02/20 07:33:05;;;;;;;3.67;3.30;;;8.20;84.70;;;;;;5022577;28;20459;-46
2022/02/20 07:35:32;;;;;;;5.10;3.07;;;8.20;84.50;;;;;;5023032;28;20952;-47
2022/02/20 07:38:00;;;;;;;5.00;2.83;;;8.20;84.70;;;;;;5017562;28;21101;-46
2022/02/20 07:40:27;;;;;;;5.97;3.43;;;8.20;84.90;;;;;;5021141;28;20554;-46
2022/02/20 07:42:56;;;;;;;6.63;2.60;;;8.20;84.90;;;;;;5022831;28;21162;-47
2022/02/20 07:45:23;;;;;;;4.90;3.20;;;8.30;85.10;;;;;;5018895;28;20470;-46
2022/02/20 07:48:02;;;;;;;5.50;3.57;;;8.30;85.10;;;;;;5021586;28;20553;-46
2022/02/20 07:50:31;;;;;;;6.10;3.07;;;8.30;85.30;;;;;;5021095;28;20482;-48
2022/02/20 07:52:59;;;;;;;6.30;3.50;;;8.30;85.40;;;;;;5012227;28;20985;-47
2022/02/20 07:55:27;;;;;;;3.83;2.50;;;8.40;85.50;;;;;;5020694;28;20832;-47
2022/02/20 07:57:55;;;;;;;4.20;2.27;;;8.40;85.40;;;;;;5024292;28;20633;-46
2022/02/20 08:00:27;;;;;;;3.50;2.17;;;8.40;85.70;;;;;;5005776;28;20970;-47
2022/02/20 08:02:55;;;;;;;4.80;2.40;;;8.40;85.40;;;;;;5024322;28;20467;-46
2022/02/20 08:05:22;;;;;;;5.70;2.47;;;8.40;85.70;;;;;;5022211;28;20459;-46
2022/02/20 08:07:49;;;;;;;4.20;2.43;;;8.40;85.50;;;;;;5020971;28;20456;-46
2022/02/20 08:10:15;;;;;;;3.47;2.20;;;8.50;85.30;;;;;;5004874;28;20537;-46
2022/02/20 08:12:42;;;;;;;2.50;2.17;;;8.40;85.40;;;;;;5023953;28;20543;-46
2022/02/20 08:15:09;;;;;;;2.97;1.90;;;8.40;85.80;;;;;;5020045;28;20976;-46
2022/02/20 08:17:43;;;;;;;2.73;1.90;;;8.50;85.60;;;;;;5023988;28;20546;-46
2022/02/20 08:20:12;;;;;;;6.60;2.47;;;8.50;85.30;;;;;;5020361;28;20459;-46
2022/02/20 08:22:39;;;;;;;2.63;1.80;;;8.50;85.60;;;;;;5022680;28;20459;-46
2022/02/20 08:25:06;;;;;;;2.87;1.60;;;8.50;85.40;;;;;;5017204;28;20451;-46
2022/02/20 08:27:34;;;;;;;2.67;1.77;;;8.50;85.20;;;;;;5025016;28;20897;-46
2022/02/20 08:30:03;;;;;;;2.90;1.80;;;8.50;85.60;;;;;;5021840;28;20459;-46
2022/02/20 08:32:32;;;;;;;3.90;2.20;;;8.50;85.60;;;;;;5025820;28;20487;-46
2022/02/20 08:34:59;;;;;;;4.10;1.87;;;8.50;85.70;;;;;;5028007;28;20827;-47
2022/02/20 08:37:27;;;;;;;2.47;2.13;;;8.50;85.40;;;;;;5027584;28;20494;-47
2022/02/20 08:39:53;;;;;;;2.20;1.87;;;8.50;85.90;;;;;;5022470;28;20974;-46
2022/02/20 08:42:21;;;;;;;1.40;1.30;;;8.50;86.30;;;;;;5009708;28;20464;-47
2022/02/20 08:44:48;;;;;;;1.80;1.17;;;8.60;86.10;;;;;;5008118;28;21097;-46
2022/02/20 08:47:14;;;;;;;2.50;1.27;;;8.60;86.40;;;;;;5006227;28;20487;-47
2022/02/20 08:49:41;;;;;;;1.07;1.00;;;8.60;86.30;;;;;;5028866;28;20455;-46
2022/02/20 08:52:11;;;;;;;2.47;1.40;;;8.60;86.20;;;;;;5026657;28;20493;-46
2022/02/20 08:54:38;;;;;;;4.03;1.80;;;8.60;86.30;;;;;;5007706;28;20995;-46
2022/02/20 08:57:08;;;;;;;1.90;1.50;;;8.60;86.50;;;;;;5020550;28;20490;-46
2022/02/20 08:59:37;;;;;;;4.87;1.57;;;8.60;86.50;;;;;;5025844;28;20823;-47
2022/02/20 09:02:04;;;;;;;2.97;1.63;;;8.60;86.80;;;;;;5006571;28;20465;-47
2022/02/20 09:04:31;;;;;;;2.90;1.07;;;8.60;86.60;;;;;;5028368;28;20465;-47
2022/02/20 09:06:57;;;;;;;5.00;1.47;;;8.70;86.50;;;;;;5023068;28;20860;-47
2022/02/20 09:09:24;;;;;;;3.00;1.73;;;8.70;85.70;;;;;;5028346;28;20467;-47
2022/02/20 09:11:51;;;;;;;2.90;1.50;;;8.70;85.30;;;;;;5028161;28;20491;-47
2022/02/20 09:14:18;;;;;;;2.03;1.70;;;8.70;85.80;;;;;;5028555;28;20455;-46
2022/02/20 09:16:44;;;;;;;2.60;1.50;;;8.70;85.20;;;;;;5028849;28;20451;-46
2022/02/20 09:19:11;;;;;;;3.77;1.20;;;8.80;84.80;;;;;;5027820;28;20450;-48
2022/02/20 09:21:38;;;;;;;5.27;2.30;;;8.80;84.70;;;;;;5027704;28;20458;-46
2022/02/20 09:24:05;;;;;;;1.43;1.33;;;8.80;85.00;;;;;;5021130;28;20458;-47
2022/02/20 09:26:32;;;;;;;2.23;1.90;;;8.90;84.80;;;;;;5021542;28;20455;-45
2022/02/20 09:28:59;;;;;;;3.80;1.50;;;8.90;84.50;;;;;;5028077;28;20494;-46
2022/02/20 09:31:26;;;;;;;1.90;1.57;;;9.00;83.80;;;;;;5011508;28;20490;-45
2022/02/20 09:33:53;;;;;;;4.80;1.57;;;9.00;83.60;;;;;;5007887;28;20463;-46
2022/02/20 09:36:20;;;;;;;1.77;1.40;;;9.10;83.10;;;;;;5019494;28;20467;-46
2022/02/20 09:38:47;;;;;;;1.37;1.00;;;9.10;83.20;;;;;;5019820;28;20466;-46
2022/02/20 09:41:13;;;;;;;1.90;1.20;;;9.10;83.00;;;;;;5005400;28;20468;-46
2022/02/20 09:43:41;;;;;;;1.33;0.87;;;9.20;83.00;;;;;;5021361;28;20827;-46
2022/02/20 09:46:08;;;;;;;2.07;1.10;;;9.20;82.90;;;;;;5021929;28;20483;-47
2022/02/20 09:48:36;;;;;;;2.63;1.67;;;9.30;82.80;;;;;;5018303;28;20476;-47
2022/02/20 09:51:03;;;;;;;4.63;1.67;;;9.30;82.40;;;;;;5017438;28;20488;-47
2022/02/20 09:53:33;;;;;;;2.23;1.30;;;9.30;82.50;;;;;;5010165;28;20450;-46
2022/02/20 09:56:00;;;;;;;1.83;1.37;;;9.30;82.60;;;;;;5023466;28;20466;-45
2022/02/20 09:58:26;;;;;;;3.40;1.63;;;9.30;82.50;;;;;;5019306;28;20462;-46
2022/02/20 10:01:13;;;;;;;3.70;1.80;;;9.30;82.60;;;;;;5021985;28;20979;-46
2022/02/20 10:03:43;;;;;;;2.67;2.47;;;9.30;82.80;;;;;;5020068;28;20473;-46
2022/02/20 10:06:16;;;;;;;2.40;1.87;;;9.30;82.80;;;;;;5016897;28;20777;-47
2022/02/20 10:08:48;;;;;;;4.50;2.20;;;9.30;83.40;;;;;;5017731;28;20467;-46
2022/02/20 10:11:26;;;;;;;2.77;2.00;;;9.30;83.30;;;;;;5003102;28;20491;-47
2022/02/20 10:13:55;;;;;;;6.03;2.10;;;9.30;83.40;;;;;;5021366;28;20451;-46
2022/02/20 10:16:27;;;;;;;8.90;2.40;;;9.30;83.60;;;;;;5005356;28;20455;-47
2022/02/20 10:18:56;;;;;;;3.30;1.77;;;9.30;83.20;;;;;;5020387;28;20793;-47
2022/02/20 10:21:32;;;;;;;3.37;2.40;;;9.30;83.70;;;;;;5018883;28;20467;-47
2022/02/20 10:24:06;;;;;;;4.33;2.30;;;9.30;83.90;;;;;;5020127;28;20484;-47
2022/02/20 10:26:39;;;;;;;3.20;1.60;;;9.40;83.60;;;;;;5020882;28;20469;-46
2022/02/20 10:29:08;;;;;;;2.20;1.30;;;9.40;83.10;;;;;;5021742;28;20897;-46
2022/02/20 10:31:40;;;;;;;2.30;1.47;;;9.40;82.80;;;;;;5019349;28;20497;-47
2022/02/20 10:34:14;;;;;;;2.67;1.53;;;9.50;82.70;;;;;;5021338;28;20480;-47
2022/02/20 10:36:48;;;;;;;2.83;1.40;;;9.50;82.80;;;;;;5004730;28;20954;-48
2022/02/20 10:39:31;;;;;;;1.50;1.40;;;9.50;83.00;;;;;;5018937;28;20487;-48
2022/02/20 10:42:11;;;;;;;2.80;0.90;;;9.60;82.00;;;;;;5022072;28;20952;-47
2022/02/20 10:44:53;;;;;;;1.90;0.97;;;9.70;81.70;;;;;;5005210;28;20475;-48
2022/02/20 10:47:21;;;;;;;2.87;0.97;;;9.70;81.60;;;;;;5021846;28;20963;-47
2022/02/20 10:49:52;;;;;;;3.43;1.30;;;9.80;80.90;;;;;;5005726;28;20825;-47
2022/02/20 10:52:19;;;;;;;2.97;1.00;;;9.80;81.00;;;;;;5006815;28;20495;-47
2022/02/20 10:55:06;;;;;;;1.60;0.80;;;9.90;80.60;;;;;;5020610;28;20521;-47
2022/02/20 10:57:49;;;;;;;1.23;0.90;;;9.90;80.30;;;;;;5022084;28;20451;-48
2022/02/20 11:00:21;;;;;;;1.03;0.70;;;9.90;80.10;;;;;;5021281;28;20455;-47
2022/02/20 11:03:08;;;;;;;1.00;0.70;;;9.90;79.70;;;;;;5019622;28;20854;-46
2022/02/20 11:05:37;;;;;;;1.30;0.80;;;9.80;80.00;;;;;;5020822;28;20499;-46
2022/02/20 11:08:05;;;;;;;0.70;0.60;;;9.90;79.80;;;;;;5006645;28;20459;-47
2022/02/20 11:10:33;;;;;;;1.40;0.70;;;9.90;79.90;;;;;;5004365;28;20626;-48
2022/02/20 11:13:01;;;;;;;0.80;0.80;;;9.90;79.70;;;;;;5004161;28;21205;-47
2022/02/20 11:15:28;;;;;;;0.67;0.67;;;9.90;80.10;;;;;;5025365;28;20459;-48
2022/02/20 11:17:58;;;;;;;0.63;0.63;;;9.90;79.80;;;;;;5025386;28;20443;-47
2022/02/20 11:20:27;;;;;;;2.00;0.80;;;9.90;79.50;;;;;;5025681;28;20451;-48
2022/02/20 11:22:58;;;;;;;1.83;0.80;;;9.90;79.70;;;;;;4992073;28;20547;-48
2022/02/20 11:25:26;;;;;;;1.10;0.70;;;9.90;79.80;;;;;;5025404;28;20470;-47
2022/02/20 11:27:56;;;;;;;0.90;0.60;;;10.00;79.90;;;;;;5027098;28;20464;-47
2022/02/20 11:30:23;;;;;;;0.50;0.50;;;10.00;79.70;;;;;;5023665;28;20466;-47
2022/02/20 11:32:51;;;;;;;1.10;0.50;;;10.00;79.60;;;;;;5023861;28;20840;-47
2022/02/20 11:35:20;;;;;;;0.80;0.70;;;10.00;79.30;;;;;;5027905;28;20937;-47
2022/02/20 11:37:50;;;;;;;2.67;1.00;;;10.00;79.30;;;;;;5016557;28;20527;-47
2022/02/20 11:40:19;;;;;;;3.93;3.07;;;10.00;79.20;;;;;;5019409;28;20904;-47
2022/02/20 11:43:00;;;;;;;1.70;0.70;;;10.00;79.50;;;;;;5017923;28;20823;-46
2022/02/20 11:45:29;;;;;;;1.10;1.00;;;10.10;79.40;;;;;;5021049;28;20879;-46
2022/02/20 11:48:08;;;;;;;1.40;0.70;;;10.10;79.40;;;;;;5020712;28;20853;-47
2022/02/20 11:50:42;;;;;;;0.80;0.67;;;10.10;79.20;;;;;;5019581;28;20481;-47
2022/02/20 11:53:10;;;;;;;0.60;0.60;;;10.10;79.50;;;;;;5018173;28;20511;-47
2022/02/20 11:55:42;;;;;;;1.23;1.00;;;10.10;79.60;;;;;;5019875;28;20943;-47
2022/02/20 11:58:13;;;;;;;1.40;0.60;;;10.10;79.70;;;;;;5017975;28;20471;-47
2022/02/20 12:00:56;;;;;;;0.87;0.40;;;10.20;79.60;;;;;;5019890;28;20454;-47
2022/02/20 12:03:28;;;;;;;0.70;0.40;;;10.10;79.60;;;;;;5020572;28;20466;-47
2022/02/20 12:06:14;;;;;;;0.80;0.57;;;10.10;79.80;;;;;;5001987;28;20478;-47
2022/02/20 12:08:46;;;;;;;0.50;0.50;;;10.10;79.70;;;;;;5017790;28;20470;-47
2022/02/20 12:11:19;;;;;;;1.90;0.67;;;10.00;80.10;;;;;;5022581;28;20467;-46
2022/02/20 12:13:48;;;;;;;0.80;0.70;;;9.90;80.40;;;;;;5023551;28;20471;-46
2022/02/20 12:16:19;;;;;;;0.77;0.47;;;9.90;80.50;;;;;;5024418;28;20461;-47
2022/02/20 12:19:04;;;;;;;0.73;0.60;;;9.90;80.80;;;;;;5010072;28;20485;-46
2022/02/20 12:21:32;;;;;;;0.90;0.60;;;9.90;80.90;;;;;;5025659;28;20472;-47
2022/02/20 12:24:15;;;;;;;0.40;0.40;;;9.80;80.70;;;;;;5025237;28;20521;-47
2022/02/20 12:26:47;;;;;;;0.77;0.60;;;9.80;81.00;;;;;;5026063;28;20550;-47
2022/02/20 12:29:19;;;;;;;0.60;0.60;;;9.90;81.00;;;;;;5016591;28;20723;-47
2022/02/20 12:32:03;;;;;;;0.60;0.50;;;9.90;81.10;;;;;;5025451;28;20491;-47
2022/02/20 12:34:56;;;;;;;0.60;0.60;;;9.80;81.10;;;;;;5026299;28;20463;-47
2022/02/20 12:37:36;;;;;;;0.70;0.60;;;9.90;81.40;;;;;;5022749;28;20462;-47
2022/02/20 12:40:21;;;;;;;0.63;0.50;;;9.80;81.40;;;;;;5025552;28;21787;-47
2022/02/20 12:42:56;;;;;;;0.73;0.60;;;9.90;81.30;;;;;;5023023;28;20458;-47
2022/02/20 12:45:30;;;;;;;1.20;0.90;;;9.90;81.20;;;;;;5022061;28;20820;-48
2022/02/20 12:47:59;;;;;;;0.67;0.40;;;9.90;81.20;;;;;;5008411;28;20998;-47
2022/02/20 12:50:33;;;;;;;1.30;0.30;;;10.00;80.90;;;;;;5025829;28;20459;-47
2022/02/20 12:53:03;;;;;;;1.00;0.50;;;10.00;80.90;;;;;;5027455;28;20524;-47
2022/02/20 12:55:30;;;;;;;0.40;0.40;;;10.00;80.90;;;;;;5028072;28;20451;-48
2022/02/20 12:58:00;;;;;;;0.87;0.60;;;9.90;81.00;;;;;;5026108;28;20464;-48
2022/02/20 13:00:48;;;;;;;1.03;0.90;;;9.90;81.10;;;;;;5022498;28;21097;-46
2022/02/20 13:03:16;;;;;;;0.70;0.63;;;9.90;81.10;;;;;;5008710;28;20471;-46